Heat Index [SAI AWOS/ASOS Display]_________FAA Disclaimer: "Not for use in aviation at this time______________" Untitled Document
Auglaize County Neil Armstrong Airport (AXV)
160
05:42
17/08/17
05
N/A
N/A
29.96
2100
912
74(F), 23(C)
74(F), 23(C)
70 F
100%
SCT110
10
N/A
N/A
N/A
05:42 zulu Wind 160 at 05 Knots, Altimeter 29.96
METAR KAXV 170542Z AUTO 16005KT 10SM SCT110 23/23 A2996 A02
METAR:
FAA Disclaimer--Advisory Use ONLY, not for flight info-- 3/04/2009: Welcome to the Neil Armstong AXV Graphical AWOS Display, if you find this information useful, please call the airport manager at 419-753-2810. New URL for AWOS smartphone display is http://www.saiawos2.com/AXV
INFO:
Wind Direction:
Wind Speed:
Wind Gust:
Wind Variable:
Altimeter:
Dens Alt:
Elev:
Temp:
Dwpt:
Heat Index
Rel Humidity:
Ceiling:
Visibility:
Prsnt Wea:
PCPN:
Remarks:
How to read the WebPage